sensor_id;sensor_type;location;lat;lon;timestamp;P1;durP1;ratioP1;P2;durP2;ratioP2
26953;SDS011;14508;50.924;11.600;2024-03-23T00:55:33;21.67;;;9.77;;
26953;SDS011;14508;50.924;11.600;2024-03-23T00:57:59;22.60;;;10.05;;
26953;SDS011;14508;50.924;11.600;2024-03-23T01:00:28;26.35;;;10.82;;
26953;SDS011;14508;50.924;11.600;2024-03-23T01:02:54;22.63;;;10.52;;
26953;SDS011;14508;50.924;11.600;2024-03-23T01:05:21;23.27;;;9.60;;
26953;SDS011;14508;50.924;11.600;2024-03-23T01:07:47;23.48;;;10.75;;
26953;SDS011;14508;50.924;11.600;2024-03-23T01:10:16;23.23;;;10.70;;
26953;SDS011;14508;50.924;11.600;2024-03-23T01:12:42;26.25;;;10.90;;
26953;SDS011;14508;50.924;11.600;2024-03-23T01:15:09;27.13;;;12.18;;
26953;SDS011;14508;50.924;11.600;2024-03-23T01:17:35;34.75;;;11.25;;
26953;SDS011;14508;50.924;11.600;2024-03-23T01:20:02;26.20;;;11.45;;
26953;SDS011;14508;50.924;11.600;2024-03-23T01:22:28;31.15;;;11.23;;
26953;SDS011;14508;50.924;11.600;2024-03-23T01:24:56;27.15;;;11.10;;
26953;SDS011;14508;50.924;11.600;2024-03-23T01:27:23;29.90;;;12.63;;
26953;SDS011;14508;50.924;11.600;2024-03-23T01:29:50;26.42;;;11.88;;
26953;SDS011;14508;50.924;11.600;2024-03-23T01:32:17;28.45;;;12.25;;
26953;SDS011;14508;50.924;11.600;2024-03-23T01:34:44;30.77;;;12.02;;
26953;SDS011;14508;50.924;11.600;2024-03-23T01:37:10;33.65;;;13.10;;
26953;SDS011;14508;50.924;11.600;2024-03-23T01:39:40;31.33;;;11.90;;
26953;SDS011;14508;50.924;11.600;2024-03-23T01:42:06;31.20;;;13.82;;
26953;SDS011;14508;50.924;11.600;2024-03-23T01:44:34;32.50;;;12.27;;
26953;SDS011;14508;50.924;11.600;2024-03-23T01:47:00;30.52;;;13.35;;
26953;SDS011;14508;50.924;11.600;2024-03-23T01:49:27;34.05;;;13.82;;
26953;SDS011;14508;50.924;11.600;2024-03-23T01:51:53;28.67;;;12.02;;
26953;SDS011;14508;50.924;11.600;2024-03-23T01:54:20;30.20;;;10.63;;
26953;SDS011;14508;50.924;11.600;2024-03-23T01:56:47;31.17;;;12.05;;
26953;SDS011;14508;50.924;11.600;2024-03-23T01:59:14;27.45;;;11.95;;
26953;SDS011;14508;50.924;11.600;2024-03-23T02:01:42;32.17;;;14.38;;
26953;SDS011;14508;50.924;11.600;2024-03-23T02:04:08;28.10;;;11.43;;
26953;SDS011;14508;50.924;11.600;2024-03-23T02:06:35;28.65;;;13.02;;
26953;SDS011;14508;50.924;11.600;2024-03-23T02:09:01;29.63;;;11.98;;
26953;SDS011;14508;50.924;11.600;2024-03-23T02:11:29;29.33;;;12.73;;
26953;SDS011;14508;50.924;11.600;2024-03-23T02:13:56;29.60;;;11.90;;
26953;SDS011;14508;50.924;11.600;2024-03-23T02:16:22;33.22;;;14.30;;
26953;SDS011;14508;50.924;11.600;2024-03-23T02:18:50;23.90;;;11.25;;
26953;SDS011;14508;50.924;11.600;2024-03-23T02:21:16;25.63;;;10.95;;
26953;SDS011;14508;50.924;11.600;2024-03-23T02:23:44;33.63;;;12.02;;
26953;SDS011;14508;50.924;11.600;2024-03-23T02:26:10;25.73;;;11.90;;
26953;SDS011;14508;50.924;11.600;2024-03-23T02:28:37;22.40;;;10.10;;
26953;SDS011;14508;50.924;11.600;2024-03-23T02:31:03;22.30;;;9.90;;
26953;SDS011;14508;50.924;11.600;2024-03-23T02:33:30;23.50;;;9.35;;
26953;SDS011;14508;50.924;11.600;2024-03-23T02:35:57;24.88;;;10.55;;
26953;SDS011;14508;50.924;11.600;2024-03-23T02:38:24;20.60;;;8.55;;
26953;SDS011;14508;50.924;11.600;2024-03-23T02:40:51;21.83;;;9.25;;
26953;SDS011;14508;50.924;11.600;2024-03-23T02:43:18;15.30;;;7.93;;
26953;SDS011;14508;50.924;11.600;2024-03-23T02:45:44;22.55;;;9.45;;
26953;SDS011;14508;50.924;11.600;2024-03-23T02:48:11;22.17;;;9.48;;
26953;SDS011;14508;50.924;11.600;2024-03-23T02:50:37;27.05;;;10.93;;
26953;SDS011;14508;50.924;11.600;2024-03-23T02:53:04;29.95;;;11.70;;
26953;SDS011;14508;50.924;11.600;2024-03-23T02:55:30;25.33;;;11.15;;
26953;SDS011;14508;50.924;11.600;2024-03-23T02:57:58;24.27;;;11.02;;
26953;SDS011;14508;50.924;11.600;2024-03-23T03:00:27;19.25;;;9.32;;
26953;SDS011;14508;50.924;11.600;2024-03-23T03:02:54;20.08;;;10.15;;
26953;SDS011;14508;50.924;11.600;2024-03-23T03:05:20;26.75;;;10.40;;
26953;SDS011;14508;50.924;11.600;2024-03-23T03:07:47;29.10;;;12.95;;
26953;SDS011;14508;50.924;11.600;2024-03-23T03:10:13;30.67;;;12.05;;
26953;SDS011;14508;50.924;11.600;2024-03-23T03:12:41;26.40;;;11.63;;
26953;SDS011;14508;50.924;11.600;2024-03-23T03:15:08;28.10;;;11.90;;
26953;SDS011;14508;50.924;11.600;2024-03-23T03:17:35;23.92;;;10.93;;
26953;SDS011;14508;50.924;11.600;2024-03-23T03:20:01;23.95;;;10.63;;
26953;SDS011;14508;50.924;11.600;2024-03-23T03:22:30;20.08;;;10.55;;
26953;SDS011;14508;50.924;11.600;2024-03-23T03:24:56;25.40;;;10.93;;
26953;SDS011;14508;50.924;11.600;2024-03-23T03:27:23;25.58;;;9.93;;
26953;SDS011;14508;50.924;11.600;2024-03-23T03:29:49;20.85;;;9.15;;
26953;SDS011;14508;50.924;11.600;2024-03-23T03:32:17;27.00;;;10.95;;
26953;SDS011;14508;50.924;11.600;2024-03-23T03:34:43;24.13;;;9.23;;
26953;SDS011;14508;50.924;11.600;2024-03-23T03:37:10;24.42;;;10.30;;
26953;SDS011;14508;50.924;11.600;2024-03-23T03:39:36;27.40;;;9.75;;
26953;SDS011;14508;50.924;11.600;2024-03-23T03:42:02;38.95;;;10.52;;
26953;SDS011;14508;50.924;11.600;2024-03-23T03:44:32;23.45;;;9.27;;
26953;SDS011;14508;50.924;11.600;2024-03-23T03:46:59;20.33;;;10.25;;
26953;SDS011;14508;50.924;11.600;2024-03-23T03:49:26;23.63;;;9.57;;
26953;SDS011;14508;50.924;11.600;2024-03-23T03:51:53;26.88;;;8.50;;
26953;SDS011;14508;50.924;11.600;2024-03-23T03:54:19;19.73;;;9.27;;
26953;SDS011;14508;50.924;11.600;2024-03-23T03:56:46;21.50;;;10.15;;
26953;SDS011;14508;50.924;11.600;2024-03-23T03:59:11;22.05;;;9.50;;
26953;SDS011;14508;50.924;11.600;2024-03-23T04:01:38;24.23;;;10.43;;
26953;SDS011;14508;50.924;11.600;2024-03-23T04:04:04;20.85;;;10.63;;
26953;SDS011;14508;50.924;11.600;2024-03-23T04:06:33;26.45;;;10.63;;
26953;SDS011;14508;50.924;11.600;2024-03-23T04:08:58;25.25;;;10.90;;
26953;SDS011;14508;50.924;11.600;2024-03-23T04:11:25;24.77;;;9.85;;
26953;SDS011;14508;50.924;11.600;2024-03-23T04:13:51;22.63;;;9.63;;
26953;SDS011;14508;50.924;11.600;2024-03-23T04:16:24;17.45;;;8.23;;
26953;SDS011;14508;50.924;11.600;2024-03-23T04:18:51;18.73;;;8.85;;
26953;SDS011;14508;50.924;11.600;2024-03-23T04:21:19;18.15;;;8.02;;
26953;SDS011;14508;50.924;11.600;2024-03-23T04:23:46;18.92;;;7.68;;
26953;SDS011;14508;50.924;11.600;2024-03-23T04:26:13;17.90;;;8.63;;
26953;SDS011;14508;50.924;11.600;2024-03-23T04:28:40;22.30;;;9.75;;
26953;SDS011;14508;50.924;11.600;2024-03-23T04:31:08;18.90;;;9.02;;
26953;SDS011;14508;50.924;11.600;2024-03-23T04:33:34;19.98;;;9.10;;
26953;SDS011;14508;50.924;11.600;2024-03-23T04:36:01;24.33;;;9.73;;
26953;SDS011;14508;50.924;11.600;2024-03-23T04:38:28;22.30;;;9.73;;
26953;SDS011;14508;50.924;11.600;2024-03-23T04:40:56;21.48;;;9.05;;
26953;SDS011;14508;50.924;11.600;2024-03-23T04:43:24;26.13;;;10.65;;
26953;SDS011;14508;50.924;11.600;2024-03-23T04:45:52;19.42;;;9.65;;
26953;SDS011;14508;50.924;11.600;2024-03-23T04:48:19;21.42;;;9.57;;
26953;SDS011;14508;50.924;11.600;2024-03-23T04:50:47;20.80;;;9.52;;
26953;SDS011;14508;50.924;11.600;2024-03-23T04:53:15;19.38;;;9.02;;
26953;SDS011;14508;50.924;11.600;2024-03-23T04:55:42;23.63;;;10.80;;
26953;SDS011;14508;50.924;11.600;2024-03-23T04:58:11;29.25;;;10.75;;
26953;SDS011;14508;50.924;11.600;2024-03-23T05:00:37;25.67;;;11.10;;
26953;SDS011;14508;50.924;11.600;2024-03-23T05:03:04;26.73;;;10.77;;
26953;SDS011;14508;50.924;11.600;2024-03-23T05:05:30;25.10;;;11.05;;
26953;SDS011;14508;50.924;11.600;2024-03-23T05:07:57;24.83;;;11.27;;
26953;SDS011;14508;50.924;11.600;2024-03-23T05:10:23;28.60;;;11.70;;
26953;SDS011;14508;50.924;11.600;2024-03-23T05:12:49;28.15;;;11.38;;
26953;SDS011;14508;50.924;11.600;2024-03-23T05:15:18;27.85;;;11.75;;
26953;SDS011;14508;50.924;11.600;2024-03-23T05:17:44;32.55;;;12.80;;
26953;SDS011;14508;50.924;11.600;2024-03-23T05:20:11;33.53;;;13.40;;
26953;SDS011;14508;50.924;11.600;2024-03-23T05:22:37;32.53;;;12.73;;
26953;SDS011;14508;50.924;11.600;2024-03-23T05:25:05;35.35;;;13.85;;
26953;SDS011;14508;50.924;11.600;2024-03-23T05:27:31;38.60;;;13.30;;
26953;SDS011;14508;50.924;11.600;2024-03-23T05:29:58;36.78;;;14.52;;
26953;SDS011;14508;50.924;11.600;2024-03-23T05:32:26;46.55;;;15.73;;
26953;SDS011;14508;50.924;11.600;2024-03-23T05:34:53;34.95;;;15.05;;
26953;SDS011;14508;50.924;11.600;2024-03-23T05:37:22;30.95;;;13.57;;
26953;SDS011;14508;50.924;11.600;2024-03-23T05:39:49;40.20;;;13.73;;
26953;SDS011;14508;50.924;11.600;2024-03-23T05:42:15;34.78;;;12.70;;
26953;SDS011;14508;50.924;11.600;2024-03-23T05:44:43;34.20;;;13.10;;
26953;SDS011;14508;50.924;11.600;2024-03-23T05:47:09;36.38;;;13.75;;
26953;SDS011;14508;50.924;11.600;2024-03-23T05:49:39;37.88;;;12.75;;
26953;SDS011;14508;50.924;11.600;2024-03-23T05:52:07;29.63;;;13.23;;
26953;SDS011;14508;50.924;11.600;2024-03-23T05:54:34;33.05;;;12.20;;
26953;SDS011;14508;50.924;11.600;2024-03-23T05:57:00;30.80;;;12.95;;
26953;SDS011;14508;50.924;11.600;2024-03-23T05:59:27;35.85;;;12.57;;
26953;SDS011;14508;50.924;11.600;2024-03-23T06:01:53;33.15;;;12.98;;
26953;SDS011;14508;50.924;11.600;2024-03-23T06:04:20;32.40;;;12.73;;
26953;SDS011;14508;50.924;11.600;2024-03-23T06:06:48;40.30;;;14.15;;
26953;SDS011;14508;50.924;11.600;2024-03-23T06:09:15;33.95;;;13.88;;
26953;SDS011;14508;50.924;11.600;2024-03-23T06:11:41;40.75;;;14.73;;
26953;SDS011;14508;50.924;11.600;2024-03-23T06:14:07;36.40;;;14.35;;
26953;SDS011;14508;50.924;11.600;2024-03-23T06:16:33;35.53;;;14.18;;
26953;SDS011;14508;50.924;11.600;2024-03-23T06:19:00;35.50;;;13.13;;
26953;SDS011;14508;50.924;11.600;2024-03-23T06:21:29;42.60;;;16.77;;
26953;SDS011;14508;50.924;11.600;2024-03-23T06:23:57;39.20;;;14.65;;
26953;SDS011;14508;50.924;11.600;2024-03-23T06:26:23;38.10;;;16.42;;
26953;SDS011;14508;50.924;11.600;2024-03-23T06:28:50;35.90;;;14.32;;
26953;SDS011;14508;50.924;11.600;2024-03-23T06:31:16;43.00;;;16.38;;
26953;SDS011;14508;50.924;11.600;2024-03-23T06:33:43;39.97;;;15.38;;
26953;SDS011;14508;50.924;11.600;2024-03-23T06:36:10;47.88;;;14.73;;
26953;SDS011;14508;50.924;11.600;2024-03-23T06:38:37;45.40;;;15.55;;
26953;SDS011;14508;50.924;11.600;2024-03-23T06:41:06;40.83;;;15.73;;
26953;SDS011;14508;50.924;11.600;2024-03-23T06:43:34;40.50;;;15.00;;
26953;SDS011;14508;50.924;11.600;2024-03-23T06:46:01;39.90;;;15.82;;
26953;SDS011;14508;50.924;11.600;2024-03-23T06:48:33;38.15;;;15.18;;
26953;SDS011;14508;50.924;11.600;2024-03-23T06:50:59;39.03;;;15.65;;
26953;SDS011;14508;50.924;11.600;2024-03-23T06:53:26;48.30;;;18.30;;
26953;SDS011;14508;50.924;11.600;2024-03-23T06:55:52;37.25;;;15.23;;
26953;SDS011;14508;50.924;11.600;2024-03-23T06:58:23;43.50;;;17.77;;
26953;SDS011;14508;50.924;11.600;2024-03-23T07:00:50;51.55;;;18.70;;
26953;SDS011;14508;50.924;11.600;2024-03-23T07:03:17;49.28;;;17.40;;
26953;SDS011;14508;50.924;11.600;2024-03-23T07:05:43;41.50;;;15.95;;
26953;SDS011;14508;50.924;11.600;2024-03-23T07:08:11;59.35;;;20.58;;
26953;SDS011;14508;50.924;11.600;2024-03-23T07:10:38;66.50;;;22.65;;
26953;SDS011;14508;50.924;11.600;2024-03-23T07:13:05;58.13;;;19.05;;
26953;SDS011;14508;50.924;11.600;2024-03-23T07:15:33;61.30;;;21.55;;
26953;SDS011;14508;50.924;11.600;2024-03-23T07:18:00;58.78;;;20.80;;
26953;SDS011;14508;50.924;11.600;2024-03-23T07:20:26;52.58;;;20.80;;
26953;SDS011;14508;50.924;11.600;2024-03-23T07:22:55;60.35;;;19.67;;
26953;SDS011;14508;50.924;11.600;2024-03-23T07:25:21;33.88;;;11.05;;
26953;SDS011;14508;50.924;11.600;2024-03-23T07:27:50;20.65;;;5.88;;
26953;SDS011;14508;50.924;11.600;2024-03-23T07:30:18;16.45;;;4.85;;
26953;SDS011;14508;50.924;11.600;2024-03-23T07:32:46;16.15;;;5.38;;
26953;SDS011;14508;50.924;11.600;2024-03-23T07:35:12;13.52;;;4.32;;
26953;SDS011;14508;50.924;11.600;2024-03-23T07:37:40;6.72;;;2.88;;
26953;SDS011;14508;50.924;11.600;2024-03-23T07:40:07;3.95;;;2.00;;
26953;SDS011;14508;50.924;11.600;2024-03-23T07:42:35;3.78;;;1.30;;
26953;SDS011;14508;50.924;11.600;2024-03-23T07:45:01;1.60;;;0.63;;
26953;SDS011;14508;50.924;11.600;2024-03-23T07:47:28;1.77;;;0.43;;
26953;SDS011;14508;50.924;11.600;2024-03-23T07:49:55;0.60;;;0.40;;
26953;SDS011;14508;50.924;11.600;2024-03-23T07:52:22;1.08;;;0.50;;
26953;SDS011;14508;50.924;11.600;2024-03-23T07:54:48;0.50;;;0.50;;
26953;SDS011;14508;50.924;11.600;2024-03-23T07:57:15;1.73;;;0.50;;
26953;SDS011;14508;50.924;11.600;2024-03-23T07:59:41;1.65;;;0.57;;
26953;SDS011;14508;50.924;11.600;2024-03-23T08:02:08;0.40;;;0.30;;
26953;SDS011;14508;50.924;11.600;2024-03-23T08:04:34;0.80;;;0.40;;
26953;SDS011;14508;50.924;11.600;2024-03-23T08:07:02;1.15;;;0.40;;
26953;SDS011;14508;50.924;11.600;2024-03-23T08:09:28;0.55;;;0.40;;
26953;SDS011;14508;50.924;11.600;2024-03-23T08:11:55;3.42;;;0.40;;
26953;SDS011;14508;50.924;11.600;2024-03-23T08:14:21;0.85;;;0.50;;
26953;SDS011;14508;50.924;11.600;2024-03-23T08:16:48;0.40;;;0.40;;
26953;SDS011;14508;50.924;11.600;2024-03-23T08:19:16;0.55;;;0.35;;
26953;SDS011;14508;50.924;11.600;2024-03-23T08:21:42;0.30;;;0.30;;
26953;SDS011;14508;50.924;11.600;2024-03-23T08:24:10;0.75;;;0.30;;
26953;SDS011;14508;50.924;11.600;2024-03-23T08:26:36;0.35;;;0.35;;
26953;SDS011;14508;50.924;11.600;2024-03-23T08:29:04;0.43;;;0.40;;
26953;SDS011;14508;50.924;11.600;2024-03-23T08:31:30;3.97;;;0.50;;
26953;SDS011;14508;50.924;11.600;2024-03-23T08:33:56;0.98;;;0.57;;
26953;SDS011;14508;50.924;11.600;2024-03-23T08:36:23;0.80;;;0.45;;
26953;SDS011;14508;50.924;11.600;2024-03-23T08:38:49;0.30;;;0.30;;
26953;SDS011;14508;50.924;11.600;2024-03-23T08:41:20;0.50;;;0.40;;
26953;SDS011;14508;50.924;11.600;2024-03-23T08:43:46;0.35;;;0.20;;
26953;SDS011;14508;50.924;11.600;2024-03-23T08:46:13;0.52;;;0.30;;
26953;SDS011;14508;50.924;11.600;2024-03-23T08:48:41;0.52;;;0.45;;
26953;SDS011;14508;50.924;11.600;2024-03-23T08:51:10;0.30;;;0.30;;
26953;SDS011;14508;50.924;11.600;2024-03-23T08:53:37;0.20;;;0.20;;
26953;SDS011;14508;50.924;11.600;2024-03-23T08:56:04;0.60;;;0.30;;
26953;SDS011;14508;50.924;11.600;2024-03-23T08:58:34;0.43;;;0.40;;
26953;SDS011;14508;50.924;11.600;2024-03-23T09:01:04;2.20;;;0.40;;
26953;SDS011;14508;50.924;11.600;2024-03-23T09:03:33;1.33;;;0.50;;
26953;SDS011;14508;50.924;11.600;2024-03-23T09:05:59;0.75;;;0.43;;
26953;SDS011;14508;50.924;11.600;2024-03-23T09:08:26;0.40;;;0.40;;
26953;SDS011;14508;50.924;11.600;2024-03-23T09:10:52;0.35;;;0.32;;
26953;SDS011;14508;50.924;11.600;2024-03-23T09:13:20;1.38;;;0.38;;
26953;SDS011;14508;50.924;11.600;2024-03-23T09:15:47;0.52;;;0.20;;
26953;SDS011;14508;50.924;11.600;2024-03-23T09:18:15;0.32;;;0.30;;
26953;SDS011;14508;50.924;11.600;2024-03-23T09:20:41;0.30;;;0.30;;
26953;SDS011;14508;50.924;11.600;2024-03-23T09:23:08;1.08;;;0.20;;
26953;SDS011;14508;50.924;11.600;2024-03-23T09:25:36;0.20;;;0.20;;
26953;SDS011;14508;50.924;11.600;2024-03-23T09:28:03;0.80;;;0.20;;
26953;SDS011;14508;50.924;11.600;2024-03-23T09:30:30;1.25;;;0.35;;
26953;SDS011;14508;50.924;11.600;2024-03-23T09:32:59;0.40;;;0.30;;
26953;SDS011;14508;50.924;11.600;2024-03-23T09:35:26;1.75;;;0.40;;
26953;SDS011;14508;50.924;11.600;2024-03-23T09:37:53;0.20;;;0.20;;
26953;SDS011;14508;50.924;11.600;2024-03-23T09:40:20;0.93;;;0.30;;
26953;SDS011;14508;50.924;11.600;2024-03-23T09:42:49;0.10;;;0.10;;
26953;SDS011;14508;50.924;11.600;2024-03-23T09:45:16;0.80;;;0.47;;
26953;SDS011;14508;50.924;11.600;2024-03-23T09:47:47;0.28;;;0.28;;
26953;SDS011;14508;50.924;11.600;2024-03-23T09:50:17;0.75;;;0.40;;
26953;SDS011;14508;50.924;11.600;2024-03-23T09:52:45;1.80;;;0.40;;
26953;SDS011;14508;50.924;11.600;2024-03-23T09:55:11;2.67;;;0.43;;
26953;SDS011;14508;50.924;11.600;2024-03-23T09:57:39;3.45;;;0.35;;
26953;SDS011;14508;50.924;11.600;2024-03-23T10:00:05;0.50;;;0.40;;
26953;SDS011;14508;50.924;11.600;2024-03-23T10:02:33;1.42;;;0.70;;
26953;SDS011;14508;50.924;11.600;2024-03-23T10:05:00;2.53;;;0.70;;
26953;SDS011;14508;50.924;11.600;2024-03-23T10:07:28;1.92;;;0.43;;
26953;SDS011;14508;50.924;11.600;2024-03-23T10:09:54;0.98;;;0.40;;
26953;SDS011;14508;50.924;11.600;2024-03-23T10:12:22;1.98;;;0.55;;
26953;SDS011;14508;50.924;11.600;2024-03-23T10:14:50;0.60;;;0.40;;
26953;SDS011;14508;50.924;11.600;2024-03-23T10:17:17;0.73;;;0.50;;
26953;SDS011;14508;50.924;11.600;2024-03-23T10:19:44;1.42;;;0.60;;
26953;SDS011;14508;50.924;11.600;2024-03-23T10:22:13;3.10;;;0.50;;
26953;SDS011;14508;50.924;11.600;2024-03-23T10:24:42;1.38;;;0.60;;
26953;SDS011;14508;50.924;11.600;2024-03-23T10:27:09;4.53;;;1.15;;
26953;SDS011;14508;50.924;11.600;2024-03-23T10:29:35;2.60;;;0.85;;
26953;SDS011;14508;50.924;11.600;2024-03-23T10:32:08;1.67;;;0.70;;
26953;SDS011;14508;50.924;11.600;2024-03-23T10:34:35;1.50;;;0.50;;
26953;SDS011;14508;50.924;11.600;2024-03-23T10:37:02;1.95;;;0.60;;
26953;SDS011;14508;50.924;11.600;2024-03-23T10:39:30;4.80;;;1.00;;
26953;SDS011;14508;50.924;11.600;2024-03-23T10:42:01;1.55;;;0.77;;
26953;SDS011;14508;50.924;11.600;2024-03-23T10:44:28;2.47;;;0.93;;
26953;SDS011;14508;50.924;11.600;2024-03-23T10:46:56;1.75;;;0.60;;
26953;SDS011;14508;50.924;11.600;2024-03-23T10:49:28;3.35;;;0.60;;
26953;SDS011;14508;50.924;11.600;2024-03-23T10:51:58;6.60;;;0.70;;
26953;SDS011;14508;50.924;11.600;2024-03-23T11:01:54;2.88;;;0.77;;
26953;SDS011;14508;50.924;11.600;2024-03-23T11:04:32;4.20;;;0.95;;
26953;SDS011;14508;50.924;11.600;2024-03-23T11:06:58;4.90;;;1.30;;
26953;SDS011;14508;50.924;11.600;2024-03-23T11:09:38;7.18;;;1.00;;
26953;SDS011;14508;50.924;11.600;2024-03-23T11:12:14;4.93;;;0.90;;
26953;SDS011;14508;50.924;11.600;2024-03-23T11:14:51;6.35;;;1.42;;
26953;SDS011;14508;50.924;11.600;2024-03-23T11:17:20;8.35;;;1.30;;
26953;SDS011;14508;50.924;11.600;2024-03-23T11:19:54;3.67;;;1.88;;
26953;SDS011;14508;50.924;11.600;2024-03-23T11:22:37;2.58;;;1.52;;
26953;SDS011;14508;50.924;11.600;2024-03-23T11:25:15;6.43;;;1.58;;
26953;SDS011;14508;50.924;11.600;2024-03-23T11:27:42;8.18;;;1.85;;
26953;SDS011;14508;50.924;11.600;2024-03-23T11:30:11;7.97;;;2.35;;
26953;SDS011;14508;50.924;11.600;2024-03-23T11:32:45;10.57;;;2.10;;
26953;SDS011;14508;50.924;11.600;2024-03-23T11:35:28;10.18;;;2.80;;
26953;SDS011;14508;50.924;11.600;2024-03-23T11:38:06;10.70;;;1.70;;
26953;SDS011;14508;50.924;11.600;2024-03-23T11:40:35;9.02;;;1.98;;
26953;SDS011;14508;50.924;11.600;2024-03-23T11:43:02;12.25;;;2.35;;
26953;SDS011;14508;50.924;11.600;2024-03-23T11:45:33;8.00;;;2.03;;
26953;SDS011;14508;50.924;11.600;2024-03-23T11:48:08;11.73;;;2.05;;
26953;SDS011;14508;50.924;11.600;2024-03-23T11:50:37;7.63;;;1.63;;
26953;SDS011;14508;50.924;11.600;2024-03-23T11:53:11;7.75;;;1.75;;
26953;SDS011;14508;50.924;11.600;2024-03-23T11:55:41;7.68;;;2.20;;
26953;SDS011;14508;50.924;11.600;2024-03-23T11:58:08;15.15;;;2.42;;
26953;SDS011;14508;50.924;11.600;2024-03-23T12:00:35;9.70;;;3.13;;
26953;SDS011;14508;50.924;11.600;2024-03-23T12:03:01;7.47;;;2.25;;
26953;SDS011;14508;50.924;11.600;2024-03-23T12:05:29;7.13;;;2.80;;
26953;SDS011;14508;50.924;11.600;2024-03-23T12:10:48;14.75;;;2.60;;
26953;SDS011;14508;50.924;11.600;2024-03-23T12:13:16;9.20;;;3.28;;
26953;SDS011;14508;50.924;11.600;2024-03-23T12:15:44;13.07;;;3.28;;
26953;SDS011;14508;50.924;11.600;2024-03-23T12:18:10;13.30;;;2.88;;
26953;SDS011;14508;50.924;11.600;2024-03-23T12:20:40;7.75;;;3.05;;
26953;SDS011;14508;50.924;11.600;2024-03-23T12:23:09;15.18;;;3.53;;
26953;SDS011;14508;50.924;11.600;2024-03-23T12:25:41;11.80;;;3.88;;
26953;SDS011;14508;50.924;11.600;2024-03-23T12:28:07;9.43;;;3.17;;
26953;SDS011;14508;50.924;11.600;2024-03-23T12:30:34;12.88;;;3.03;;
26953;SDS011;14508;50.924;11.600;2024-03-23T12:33:01;8.60;;;3.42;;
26953;SDS011;14508;50.924;11.600;2024-03-23T12:35:29;16.00;;;3.42;;
26953;SDS011;14508;50.924;11.600;2024-03-23T12:37:56;9.93;;;3.33;;
26953;SDS011;14508;50.924;11.600;2024-03-23T12:40:24;12.05;;;4.05;;
26953;SDS011;14508;50.924;11.600;2024-03-23T12:42:50;11.80;;;4.00;;
26953;SDS011;14508;50.924;11.600;2024-03-23T12:45:16;9.18;;;2.85;;
26953;SDS011;14508;50.924;11.600;2024-03-23T12:47:42;7.88;;;3.28;;
26953;SDS011;14508;50.924;11.600;2024-03-23T12:50:09;12.45;;;4.07;;
26953;SDS011;14508;50.924;11.600;2024-03-23T12:52:36;9.57;;;3.50;;
26953;SDS011;14508;50.924;11.600;2024-03-23T12:55:05;7.13;;;2.30;;
26953;SDS011;14508;50.924;11.600;2024-03-23T12:57:31;20.67;;;2.78;;
26953;SDS011;14508;50.924;11.600;2024-03-23T12:59:58;5.15;;;2.47;;
26953;SDS011;14508;50.924;11.600;2024-03-23T13:02:25;6.50;;;2.42;;
26953;SDS011;14508;50.924;11.600;2024-03-23T13:04:52;8.80;;;2.22;;
26953;SDS011;14508;50.924;11.600;2024-03-23T13:07:19;5.72;;;1.95;;
26953;SDS011;14508;50.924;11.600;2024-03-23T13:09:47;5.88;;;1.70;;
26953;SDS011;14508;50.924;11.600;2024-03-23T13:12:17;6.22;;;2.50;;
26953;SDS011;14508;50.924;11.600;2024-03-23T13:14:44;5.07;;;2.08;;
26953;SDS011;14508;50.924;11.600;2024-03-23T13:17:11;6.60;;;1.88;;
26953;SDS011;14508;50.924;11.600;2024-03-23T13:19:38;5.97;;;2.40;;
26953;SDS011;14508;50.924;11.600;2024-03-23T13:22:04;7.28;;;2.20;;
26953;SDS011;14508;50.924;11.600;2024-03-23T13:24:31;9.23;;;2.55;;
26953;SDS011;14508;50.924;11.600;2024-03-23T13:26:57;9.85;;;3.25;;
26953;SDS011;14508;50.924;11.600;2024-03-23T13:29:26;9.60;;;2.75;;
26953;SDS011;14508;50.924;11.600;2024-03-23T13:31:52;8.70;;;2.55;;
26953;SDS011;14508;50.924;11.600;2024-03-23T13:34:19;6.32;;;2.08;;
26953;SDS011;14508;50.924;11.600;2024-03-23T13:36:46;6.80;;;2.55;;
26953;SDS011;14508;50.924;11.600;2024-03-23T13:39:14;13.85;;;2.40;;
26953;SDS011;14508;50.924;11.600;2024-03-23T13:41:41;9.10;;;2.20;;
26953;SDS011;14508;50.924;11.600;2024-03-23T13:44:08;10.88;;;1.90;;
26953;SDS011;14508;50.924;11.600;2024-03-23T13:46:37;7.28;;;2.30;;
26953;SDS011;14508;50.924;11.600;2024-03-23T13:49:04;7.32;;;3.15;;
26953;SDS011;14508;50.924;11.600;2024-03-23T13:51:30;5.25;;;2.63;;
26953;SDS011;14508;50.924;11.600;2024-03-23T13:53:57;4.43;;;1.92;;
26953;SDS011;14508;50.924;11.600;2024-03-23T13:56:26;4.32;;;1.38;;
26953;SDS011;14508;50.924;11.600;2024-03-23T13:58:54;4.78;;;1.88;;
26953;SDS011;14508;50.924;11.600;2024-03-23T14:01:21;9.73;;;1.83;;
26953;SDS011;14508;50.924;11.600;2024-03-23T14:03:49;5.50;;;1.35;;
26953;SDS011;14508;50.924;11.600;2024-03-23T14:06:15;9.45;;;2.40;;
26953;SDS011;14508;50.924;11.600;2024-03-23T14:08:42;4.03;;;1.45;;
26953;SDS011;14508;50.924;11.600;2024-03-23T14:11:08;3.38;;;1.20;;
26953;SDS011;14508;50.924;11.600;2024-03-23T14:13:35;4.00;;;1.20;;
26953;SDS011;14508;50.924;11.600;2024-03-23T14:16:02;7.38;;;1.20;;
26953;SDS011;14508;50.924;11.600;2024-03-23T14:18:29;3.53;;;1.30;;
26953;SDS011;14508;50.924;11.600;2024-03-23T14:20:57;4.78;;;1.25;;
26953;SDS011;14508;50.924;11.600;2024-03-23T14:23:25;3.55;;;1.00;;
26953;SDS011;14508;50.924;11.600;2024-03-23T14:25:54;4.40;;;1.20;;
26953;SDS011;14508;50.924;11.600;2024-03-23T14:28:22;5.88;;;1.20;;
26953;SDS011;14508;50.924;11.600;2024-03-23T14:30:48;7.05;;;2.30;;
26953;SDS011;14508;50.924;11.600;2024-03-23T14:33:15;4.85;;;1.35;;
26953;SDS011;14508;50.924;11.600;2024-03-23T14:35:42;8.20;;;2.15;;
26953;SDS011;14508;50.924;11.600;2024-03-23T14:38:10;5.30;;;1.48;;
26953;SDS011;14508;50.924;11.600;2024-03-23T14:40:36;2.72;;;1.67;;
26953;SDS011;14508;50.924;11.600;2024-03-23T14:43:03;6.20;;;1.50;;
26953;SDS011;14508;50.924;11.600;2024-03-23T14:45:29;5.85;;;1.70;;
26953;SDS011;14508;50.924;11.600;2024-03-23T14:47:56;2.75;;;1.67;;
26953;SDS011;14508;50.924;11.600;2024-03-23T14:50:23;4.32;;;1.85;;
26953;SDS011;14508;50.924;11.600;2024-03-23T14:52:50;8.70;;;1.98;;
26953;SDS011;14508;50.924;11.600;2024-03-23T14:55:17;8.32;;;2.30;;
26953;SDS011;14508;50.924;11.600;2024-03-23T14:57:45;8.73;;;2.90;;
26953;SDS011;14508;50.924;11.600;2024-03-23T15:00:11;7.40;;;3.55;;
26953;SDS011;14508;50.924;11.600;2024-03-23T15:02:39;9.65;;;3.58;;
26953;SDS011;14508;50.924;11.600;2024-03-23T15:05:05;6.82;;;3.10;;
26953;SDS011;14508;50.924;11.600;2024-03-23T15:07:35;5.35;;;2.70;;
26953;SDS011;14508;50.924;11.600;2024-03-23T15:10:01;8.73;;;2.65;;
26953;SDS011;14508;50.924;11.600;2024-03-23T15:12:31;9.05;;;2.45;;
26953;SDS011;14508;50.924;11.600;2024-03-23T15:14:58;9.30;;;2.70;;
26953;SDS011;14508;50.924;11.600;2024-03-23T15:17:25;6.70;;;2.58;;
26953;SDS011;14508;50.924;11.600;2024-03-23T15:19:51;8.52;;;2.88;;
26953;SDS011;14508;50.924;11.600;2024-03-23T15:22:19;5.22;;;1.95;;
26953;SDS011;14508;50.924;11.600;2024-03-23T15:24:45;5.45;;;2.63;;
26953;SDS011;14508;50.924;11.600;2024-03-23T15:27:11;6.85;;;3.28;;
26953;SDS011;14508;50.924;11.600;2024-03-23T15:29:39;11.13;;;3.40;;